sensor_id;sensor_type;location;lat;lon;timestamp;pressure;altitude;pressure_sealevel;temperature
77385;BMP280;66444;49.680;18.538;2024-01-06T00:02:14;96145.9778366294;;;6.135203751642257
77385;BMP280;66444;49.680;18.538;2024-01-06T00:07:26;96145.28880491378;;;6.007897430704906
77385;BMP280;66444;49.680;18.538;2024-01-06T00:12:46;96131.2416526537;;;5.967158639663831
77385;BMP280;66444;49.680;18.538;2024-01-06T00:17:58;96125.3605657348;;;5.875494997762144
77385;BMP280;66444;49.680;18.538;2024-01-06T00:23:09;96125.78825920347;;;5.895864858943969
77385;BMP280;66444;49.680;18.538;2024-01-06T00:28:26;96126.73763925393;;;6.130111568653956
77385;BMP280;66444;49.680;18.538;2024-01-06T00:33:38;96125.0332012853;;;6.048635849216953
77385;BMP280;66444;49.680;18.538;2024-01-06T00:38:49;96121.79375372003;;;5.9569738836959
77385;BMP280;66444;49.680;18.538;2024-01-06T00:44:01;96135.73216179917;;;5.804199750209227
77385;BMP280;66444;49.680;18.538;2024-01-06T00:49:13;96137.09935487031;;;5.46298527084291
77385;BMP280;66444;49.680;18.538;2024-01-06T00:54:24;96139.48405392143;;;5.233796698460355
77385;BMP280;66444;49.680;18.538;2024-01-06T00:59:36;96137.5478706366;;;5.080997768510133
77385;BMP280;66444;49.680;18.538;2024-01-06T01:04:48;96148.98040444194;;;4.999502863828093
77385;BMP280;66444;49.680;18.538;2024-01-06T01:10:05;96143.94040529057;;;4.948567791702226
77385;BMP280;66444;49.680;18.538;2024-01-06T01:15:17;96154.26656566678;;;4.8772577128373085
77385;BMP280;66444;49.680;18.538;2024-01-06T01:20:29;96148.12611168632;;;4.836508584115654
77385;BMP280;66444;49.680;18.538;2024-01-06T01:25:41;96141.32402119279;;;4.8263212437275795
77385;BMP280;66444;49.680;18.538;2024-01-06T01:31:08;96150.10947398587;;;4.744821682432667
77385;BMP280;66444;49.680;18.538;2024-01-06T01:36:20;96142.21002410694;;;4.744821682432667
77385;BMP280;66444;49.680;18.538;2024-01-06T01:41:31;96146.37837565373;;;4.755009209085256
77385;BMP280;66444;49.680;18.538;2024-01-06T01:46:44;96161.95479801098;;;4.805946493102238
77385;BMP280;66444;49.680;18.538;2024-01-06T01:51:56;96167.21024185047;;;4.928193599870428
77385;BMP280;66444;49.680;18.538;2024-01-06T01:57:08;96166.29903624872;;;5.131931327236816
77385;BMP280;66444;49.680;18.538;2024-01-06T02:02:26;96173.94426042082;;;5.305101072974503
77385;BMP280;66444;49.680;18.538;2024-01-06T02:07:39;96164.13135971008;;;5.432427475554869
77385;BMP280;66444;49.680;18.538;2024-01-06T02:12:51;96160.4434386834;;;5.600492756487801
77385;BMP280;66444;49.680;18.538;2024-01-06T02:18:03;96156.58792476339;;;5.85512504344806
77385;BMP280;66444;49.680;18.538;2024-01-06T02:23:16;96154.73774142859;;;6.018082070257515
77385;BMP280;66444;49.680;18.538;2024-01-06T02:28:27;96154.32190110633;;;6.1555724253878
77385;BMP280;66444;49.680;18.538;2024-01-06T02:33:39;96148.19294436631;;;6.2726904920768
77385;BMP280;66444;49.680;18.538;2024-01-06T02:38:51;96160.28469596608;;;6.282874526269734
77385;BMP280;66444;49.680;18.538;2024-01-06T02:44:03;96149.20920339267;;;6.06900491877459
77385;BMP280;66444;49.680;18.538;2024-01-06T02:49:15;96160.14607719345;;;5.773644294869155
77385;BMP280;66444;49.680;18.538;2024-01-06T02:54:32;96152.91682802519;;;5.46298527084291
77385;BMP280;66444;49.680;18.538;2024-01-06T02:59:44;96151.7583567847;;;5.315287319058553
77385;BMP280;66444;49.680;18.538;2024-01-06T03:04:56;96159.56559211249;;;5.279635355900973
77385;BMP280;66444;49.680;18.538;2024-01-06T03:10:08;96152.22657586595;;;5.213423810480163
77385;BMP280;66444;49.680;18.538;2024-01-06T03:15:25;96154.72798145787;;;5.300007941201329
77385;BMP280;66444;49.680;18.538;2024-01-06T03:20:37;96149.22122741315;;;5.350938996998593
77385;BMP280;66444;49.680;18.538;2024-01-06T03:25:49;96148.88672825356;;;5.366218200232834
77385;BMP280;66444;49.680;18.538;2024-01-06T03:31:01;96150.65702436032;;;5.325473541859537
77385;BMP280;66444;49.680;18.538;2024-01-06T03:36:13;96155.06187593052;;;5.284728510957211
77385;BMP280;66444;49.680;18.538;2024-01-06T03:41:25;96154.42775150646;;;5.193050829367712
77385;BMP280;66444;49.680;18.538;2024-01-06T03:46:37;96158.16326810698;;;5.18286430388689
77385;BMP280;66444;49.680;18.538;2024-01-06T03:51:49;96166.80479216615;;;5.310194198926911
77385;BMP280;66444;49.680;18.538;2024-01-06T03:57:01;96169.97345880185;;;5.366218200232834
77385;BMP280;66444;49.680;18.538;2024-01-06T04:02:14;96169.73807485758;;;5.417148499330506
77385;BMP280;66444;49.680;18.538;2024-01-06T04:07:26;96172.33248281138;;;5.539378842292353
77385;BMP280;66444;49.680;18.538;2024-01-06T04:12:38;96167.77728976808;;;5.666698550991714
77385;BMP280;66444;49.680;18.538;2024-01-06T04:17:50;96160.3899965323;;;5.722718070307747
77385;BMP280;66444;49.680;18.538;2024-01-06T04:23:01;96149.44075544749;;;5.860217540757731
77385;BMP280;66444;49.680;18.538;2024-01-06T04:28:19;96142.47288481411;;;5.936604301910847
77385;BMP280;66444;49.680;18.538;2024-01-06T04:33:31;96144.61037222693;;;6.038451279513538
77385;BMP280;66444;49.680;18.538;2024-01-06T04:38:43;96163.33095129675;;;5.987528081750497
77385;BMP280;66444;49.680;18.538;2024-01-06T04:43:55;96151.92096773807;;;5.946789104444906
77385;BMP280;66444;49.680;18.538;2024-01-06T04:49:10;96149.71056607494;;;5.967158639663831
77385;BMP280;66444;49.680;18.538;2024-01-06T04:54:22;96157.53597369808;;;5.931511891912669
77385;BMP280;66444;49.680;18.538;2024-01-06T04:59:30;96140.93981577628;;;5.9264194760937245
77385;BMP280;66444;49.680;18.538;2024-01-06T05:04:37;96148.17742633482;;;5.9569738836959
77385;BMP280;66444;49.680;18.538;2024-01-06T05:09:46;96144.18316506261;;;6.018082070257515
77385;BMP280;66444;49.680;18.538;2024-01-06T05:14:54;96150.56600242107;;;6.007897430704906
77385;BMP280;66444;49.680;18.538;2024-01-06T05:20:02;96144.78493588603;;;6.109742778493091
77385;BMP280;66444;49.680;18.538;2024-01-06T05:25:13;96155.60087406867;;;6.216677887830883
77385;BMP280;66444;49.680;18.538;2024-01-06T05:30:27;96161.98651033439;;;6.3643459616228935
77385;BMP280;66444;49.680;18.538;2024-01-06T05:35:35;96166.58451668973;;;6.394897365709767
77385;BMP280;66444;49.680;18.538;2024-01-06T05:40:44;96166.41584487402;;;6.323610430210829
77385;BMP280;66444;49.680;18.538;2024-01-06T05:45:51;96179.6961797634;;;6.201401600800454
77385;BMP280;66444;49.680;18.538;2024-01-06T05:50:59;96185.4762786758;;;6.099558348488062
77385;BMP280;66444;49.680;18.538;2024-01-06T05:56:07;96181.64249063782;;;6.074097171612084
77385;BMP280;66444;49.680;18.538;2024-01-06T06:01:15;96199.68617040802;;;6.0537281253375115
77385;BMP280;66444;49.680;18.538;2024-01-06T06:06:34;96191.4313282807;;;6.06900491877459
77385;BMP280;66444;49.680;18.538;2024-01-06T06:11:43;96197.56612302385;;;6.109742778493091
77385;BMP280;66444;49.680;18.538;2024-01-06T06:16:56;96196.55007689084;;;6.1555724253878
77385;BMP280;66444;49.680;18.538;2024-01-06T06:22:04;96195.7086816694;;;6.2726904920768
77385;BMP280;66444;49.680;18.538;2024-01-06T06:27:17;96197.24208271349;;;6.282874526269734
77385;BMP280;66444;49.680;18.538;2024-01-06T06:32:25;96201.16246572424;;;6.34397824248299
77385;BMP280;66444;49.680;18.538;2024-01-06T06:37:33;96190.00645465386;;;6.410172989172861
77385;BMP280;66444;49.680;18.538;2024-01-06T06:42:41;96206.7860465245;;;6.48655032068491
77385;BMP280;66444;49.680;18.538;2024-01-06T06:47:54;96196.13874852883;;;6.450907728960738
77385;BMP280;66444;49.680;18.538;2024-01-06T06:53:02;96202.18645350871;;;6.455999545240775
77385;BMP280;66444;49.680;18.538;2024-01-06T06:58:15;96206.3602711758;;;6.4661831603385505
77385;BMP280;66444;49.680;18.538;2024-01-06T07:03:24;96207.37967750066;;;6.57820138973184
77385;BMP280;66444;49.680;18.538;2024-01-06T07:08:37;96210.18700998233;;;6.649484250694513
77385;BMP280;66444;49.680;18.538;2024-01-06T07:13:45;96205.91499955104;;;6.761497870041057
77385;BMP280;66444;49.680;18.538;2024-01-06T07:18:53;96215.87779047934;;;6.827686411794275
77385;BMP280;66444;49.680;18.538;2024-01-06T07:24:01;96213.895943307;;;6.954969304148108
77385;BMP280;66444;49.680;18.538;2024-01-06T07:29:14;96209.60811548786;;;7.066975240083411
77385;BMP280;66444;49.680;18.538;2024-01-06T07:34:23;96216.42690041922;;;7.077157458197325
77385;BMP280;66444;49.680;18.538;2024-01-06T07:39:31;96220.18103865012;;;7.066975240083411
77385;BMP280;66444;49.680;18.538;2024-01-06T07:44:39;96223.39855029;;;7.158614364918321
77385;BMP280;66444;49.680;18.538;2024-01-06T07:49:48;96224.2402207677;;;7.199342259485275
77385;BMP280;66444;49.680;18.538;2024-01-06T07:54:56;96223.54911896792;;;7.229887935938313
77385;BMP280;66444;49.680;18.538;2024-01-06T08:00:07;96218.95260390292;;;7.199342259485275
77385;BMP280;66444;49.680;18.538;2024-01-06T08:05:17;96224.2402207677;;;7.199342259485275
77385;BMP280;66444;49.680;18.538;2024-01-06T08:10:30;96218.11128667647;;;7.158614364918321
77385;BMP280;66444;49.680;18.538;2024-01-06T08:15:38;96231.90157409801;;;7.250251603825018
77385;BMP280;66444;49.680;18.538;2024-01-06T08:20:47;96228.91181371138;;;7.265524293622002
77385;BMP280;66444;49.680;18.538;2024-01-06T08:25:55;96238.03080521399;;;7.290978660201654
77385;BMP280;66444;49.680;18.538;2024-01-06T08:31:03;96245.00050360756;;;7.372431655367836
77385;BMP280;66444;49.680;18.538;2024-01-06T08:36:12;96243.61506964601;;;7.4335204238537695
77385;BMP280;66444;49.680;18.538;2024-01-06T08:41:20;96249.8161998926;;;7.509880205756053
77385;BMP280;66444;49.680;18.538;2024-01-06T08:46:28;96254.48433547092;;;7.57605762402527
77385;BMP280;66444;49.680;18.538;2024-01-06T08:51:36;96254.69623718882;;;7.682957529369742
77385;BMP280;66444;49.680;18.538;2024-01-06T08:56:44;96260.12735330318;;;7.75422270684503
77385;BMP280;66444;49.680;18.538;2024-01-06T09:01:52;96273.01043530735;;;7.769493667874485
77385;BMP280;66444;49.680;18.538;2024-01-06T09:07:00;96260.19619344223;;;7.789854867756366
77385;BMP280;66444;49.680;18.538;2024-01-06T09:12:09;96263.25984706155;;;7.810215974505991
77385;BMP280;66444;49.680;18.538;2024-01-06T09:17:17;96265.62570543615;;;7.861118333926425
77385;BMP280;66444;49.680;18.538;2024-01-06T09:22:25;96269.1060234261;;;7.901839802367613
77385;BMP280;66444;49.680;18.538;2024-01-06T09:27:34;96269.58949802902;;;7.95783121320419
77385;BMP280;66444;49.680;18.538;2024-01-06T09:32:42;96267.42437357546;;;8.01382191972807
77385;BMP280;66444;49.680;18.538;2024-01-06T09:37:50;96284.556715627;;;8.074901887215674
77385;BMP280;66444;49.680;18.538;2024-01-06T09:42:58;96280.79306729023;;;8.085081800306217
77385;BMP280;66444;49.680;18.538;2024-01-06T09:48:12;96276.48214390862;;;8.003641843656078
77385;BMP280;66444;49.680;18.538;2024-01-06T09:53:21;96274.05064598947;;;7.9171102569904175
77385;BMP280;66444;49.680;18.538;2024-01-06T09:58:36;96279.90485356552;;;7.815306236641481
77385;BMP280;66444;49.680;18.538;2024-01-06T10:03:47;96283.45419150281;;;7.698228734871373
77385;BMP280;66444;49.680;18.538;2024-01-06T10:08:56;96280.14665722719;;;7.377522418089211
77385;BMP280;66444;49.680;18.538;2024-01-06T10:14:04;96283.93789551946;;;7.209524174919352
77385;BMP280;66444;49.680;18.538;2024-01-06T10:19:13;96282.6081622595;;;6.954969304148108
77385;BMP280;66444;49.680;18.538;2024-01-06T10:24:22;96289.17747443088;;;6.700399881461635
77385;BMP280;66444;49.680;18.538;2024-01-06T10:29:30;96288.75062276496;;;6.68003369900398
77385;BMP280;66444;49.680;18.538;2024-01-06T10:34:38;96280.39901806443;;;6.659667423414066
77385;BMP280;66444;49.680;18.538;2024-01-06T10:39:48;96289.43082016;;;6.649484250694513
77385;BMP280;66444;49.680;18.538;2024-01-06T10:45:13;96281.7592157918;;;6.598568037850782
77385;BMP280;66444;49.680;18.538;2024-01-06T10:50:24;96283.29351995191;;;6.608751326985657
77385;BMP280;66444;49.680;18.538;2024-01-06T10:55:40;96285.50737350289;;;6.588384725432843
77385;BMP280;66444;49.680;18.538;2024-01-06T11:00:49;96277.407815075;;;6.517100886581465
77385;BMP280;66444;49.680;18.538;2024-01-06T11:05:58;96270.16396859445;;;6.48655032068491
77385;BMP280;66444;49.680;18.538;2024-01-06T11:11:12;96266.91710963583;;;6.394897365709767
77385;BMP280;66444;49.680;18.538;2024-01-06T11:16:37;96272.01688480246;;;6.323610430210829
77385;BMP280;66444;49.680;18.538;2024-01-06T11:21:45;96260.41575253927;;;6.2115857979748395
77385;BMP280;66444;49.680;18.538;2024-01-06T11:26:55;96261.33521099978;;;6.130111568653956
77385;BMP280;66444;49.680;18.538;2024-01-06T11:32:20;96259.1817899351;;;6.028266686527059
77385;BMP280;66444;49.680;18.538;2024-01-06T11:37:35;96267.24259374192;;;5.94169670608826
77385;BMP280;66444;49.680;18.538;2024-01-06T11:42:45;96263.59663301185;;;5.987528081750497
77385;BMP280;66444;49.680;18.538;2024-01-06T11:47:55;96264.02807443429;;;6.007897430704906
77385;BMP280;66444;49.680;18.538;2024-01-06T11:53:06;96260.71671173317;;;6.038451279513538
77385;BMP280;66444;49.680;18.538;2024-01-06T11:58:20;96266.47499060663;;;5.936604301910847
77385;BMP280;66444;49.680;18.538;2024-01-06T12:03:28;96265.70738958842;;;5.931511891912669
77385;BMP280;66444;49.680;18.538;2024-01-06T12:08:37;96271.0806411682;;;5.967158639663831
77385;BMP280;66444;49.680;18.538;2024-01-06T12:13:46;96272.61587495166;;;5.977343372348696
77385;BMP280;66444;49.680;18.538;2024-01-06T12:18:55;96270.40903032143;;;5.997712767869234
77385;BMP280;66444;49.680;18.538;2024-01-06T12:24:12;96274.15111719733;;;5.987528081750497
77385;BMP280;66444;49.680;18.538;2024-01-06T12:29:26;96276.11813401613;;;6.018082070257515
77385;BMP280;66444;49.680;18.538;2024-01-06T12:34:35;96267.52940413525;;;6.048635849216953
77385;BMP280;66444;49.680;18.538;2024-01-06T12:39:50;96268.29691777051;;;6.0537281253375115
77385;BMP280;66444;49.680;18.538;2024-01-06T12:44:58;96259.37001763072;;;6.099558348488062
77385;BMP280;66444;49.680;18.538;2024-01-06T12:50:07;96262.43962516889;;;6.119927185215056
77385;BMP280;66444;49.680;18.538;2024-01-06T12:55:15;96267.28731575418;;;6.099558348488062
77385;BMP280;66444;49.680;18.538;2024-01-06T13:00:29;96265.5092664574;;;6.140295928809792
77385;BMP280;66444;49.680;18.538;2024-01-06T13:05:37;96269.25290999991;;;6.130111568653956
77385;BMP280;66444;49.680;18.538;2024-01-06T13:10:46;96273.1835172556;;;6.191217380343005
77385;BMP280;66444;49.680;18.538;2024-01-06T13:15:55;96284.172071062;;;6.2115857979748395
77385;BMP280;66444;49.680;18.538;2024-01-06T13:21:03;96287.48544464263;;;6.181033136602491
77385;BMP280;66444;49.680;18.538;2024-01-06T13:26:12;96283.7415519536;;;6.191217380343005
77385;BMP280;66444;49.680;18.538;2024-01-06T13:31:20;96278.46252979427;;;6.191217380343005
77385;BMP280;66444;49.680;18.538;2024-01-06T13:36:28;96282.20650355348;;;6.181033136602491
77385;BMP280;66444;49.680;18.538;2024-01-06T13:41:36;96279.13643204268;;;6.16066457927227
77385;BMP280;66444;49.680;18.538;2024-01-06T13:46:50;96284.41519175158;;;6.16066457927227
77385;BMP280;66444;49.680;18.538;2024-01-06T13:52:04;96301.16387767685;;;6.079189418628812
77385;BMP280;66444;49.680;18.538;2024-01-06T13:57:13;96304.4740084602;;;6.048635849216953
77385;BMP280;66444;49.680;18.538;2024-01-06T14:02:21;96310.42221030331;;;6.018082070257515
77385;BMP280;66444;49.680;18.538;2024-01-06T14:07:30;96313.92657090344;;;6.058820395637303
77385;BMP280;66444;49.680;18.538;2024-01-06T14:12:44;96311.86005638412;;;5.992620427720249
77385;BMP280;66444;49.680;18.538;2024-01-06T14:17:52;96319.91178667913;;;5.906049754610285
77385;BMP280;66444;49.680;18.538;2024-01-06T14:23:11;96316.83945119378;;;5.8856799399945885
77385;BMP280;66444;49.680;18.538;2024-01-06T14:28:20;96324.75413795224;;;5.8856799399945885
77385;BMP280;66444;49.680;18.538;2024-01-06T14:33:28;96333.5378020193;;;5.9264194760937245
77385;BMP280;66444;49.680;18.538;2024-01-06T14:38:37;96339.68336798418;;;5.967158639663831
77385;BMP280;66444;49.680;18.538;2024-01-06T14:43:45;96338.91516482507;;;5.9620662645902485
77385;BMP280;66444;49.680;18.538;2024-01-06T14:48:53;96337.47882990885;;;5.987528081750497
77385;BMP280;66444;49.680;18.538;2024-01-06T14:54:02;96332.86986395501;;;5.9569738836959
77385;BMP280;66444;49.680;18.538;2024-01-06T14:59:11;96335.94249945556;;;5.977343372348696
77385;BMP280;66444;49.680;18.538;2024-01-06T15:04:20;96348.7011922811;;;5.9569738836959
77385;BMP280;66444;49.680;18.538;2024-01-06T15:09:29;96352.67333626344;;;5.895864858943969
77385;BMP280;66444;49.680;18.538;2024-01-06T15:14:38;96354.44074782835;;;5.85512504344806
77385;BMP280;66444;49.680;18.538;2024-01-06T15:19:46;96349.83020827554;;;5.824569937353954
77385;BMP280;66444;49.680;18.538;2024-01-06T15:24:55;96354.23420177668;;;5.783829469932243
77385;BMP280;66444;49.680;18.538;2024-01-06T15:30:04;96357.3081810651;;;5.804199750209227
77385;BMP280;66444;49.680;18.538;2024-01-06T15:35:13;96355.54197641448;;;5.844940031366423
77385;BMP280;66444;49.680;18.538;2024-01-06T15:40:22;96343.88825610605;;;5.85512504344806
77385;BMP280;66444;49.680;18.538;2024-01-06T15:45:31;96350.70126998029;;;5.865310032246635
77385;BMP280;66444;49.680;18.538;2024-01-06T15:50:39;96355.97761132849;;;5.865310032246635
77385;BMP280;66444;49.680;18.538;2024-01-06T15:55:48;96364.01692065613;;;5.778736885311082
77385;BMP280;66444;49.680;18.538;2024-01-06T16:00:56;96360.73245562114;;;5.687069366779179
77385;BMP280;66444;49.680;18.538;2024-01-06T16:06:05;96362.37500520755;;;5.732903361786157
77385;BMP280;66444;49.680;18.538;2024-01-06T16:11:14;96359.9638251842;;;5.681976671563461
77385;BMP280;66444;49.680;18.538;2024-01-06T16:16:22;96357.55196099989;;;5.631049399264157
77385;BMP280;66444;49.680;18.538;2024-01-06T16:21:35;96359.5371238803;;;5.539378842292353
77385;BMP280;66444;49.680;18.538;2024-01-06T16:26:44;96358.44279203395;;;5.427334489300847
77385;BMP280;66444;49.680;18.538;2024-01-06T16:31:53;96360.85911588017;;;5.3560320705641065
77385;BMP280;66444;49.680;18.538;2024-01-06T16:37:02;96359.76094195577;;;5.366218200232834
77385;BMP280;66444;49.680;18.538;2024-01-06T16:42:11;96369.20697373514;;;5.376404306618497
77385;BMP280;66444;49.680;18.538;2024-01-06T16:47:20;96367.229090419;;;5.345845917612314
77385;BMP280;66444;49.680;18.538;2024-01-06T16:52:34;96367.229090419;;;5.345845917612314
77385;BMP280;66444;49.680;18.538;2024-01-06T16:57:47;96356.02662298713;;;5.376404306618497
77385;BMP280;66444;49.680;18.538;2024-01-06T17:02:56;96356.13628178455;;;5.412055495614186
77385;BMP280;66444;49.680;18.538;2024-01-06T17:08:10;96353.82979080401;;;5.39677644954063
77385;BMP280;66444;49.680;18.538;2024-01-06T17:13:25;96363.71536886143;;;5.427334489300847
77385;BMP280;66444;49.680;18.538;2024-01-06T17:18:39;96357.89158878881;;;5.493542856583372
77385;BMP280;66444;49.680;18.538;2024-01-06T17:23:49;96360.85827806729;;;5.478264089906588
77385;BMP280;66444;49.680;18.538;2024-01-06T17:29:08;96371.62191183637;;;5.549564552865922
77385;BMP280;66444;49.680;18.538;2024-01-06T17:34:27;96366.46010447817;;;5.340752832405269
77385;BMP280;66444;49.680;18.538;2024-01-06T17:39:41;96370.93968014856;;;5.091184526821598
77385;BMP280;66444;49.680;18.538;2024-01-06T17:44:50;96367.63144846045;;;4.999502863828093
77385;BMP280;66444;49.680;18.538;2024-01-06T17:50:03;96376.15900694235;;;4.846695901220665
77385;BMP280;66444;49.680;18.538;2024-01-06T17:55:13;96368.22464134388;;;4.724446559278294
77385;BMP280;66444;49.680;18.538;2024-01-06T18:00:26;96377.66366383465;;;4.734634132497012
77385;BMP280;66444;49.680;18.538;2024-01-06T18:05:41;96378.10872341359;;;4.755009209085256
77385;BMP280;66444;49.680;18.538;2024-01-06T18:10:50;96383.90283608239;;;4.688789869658649
77385;BMP280;66444;49.680;18.538;2024-01-06T18:15:59;96380.70195903706;;;4.632757352571934
77385;BMP280;66444;49.680;18.538;2024-01-06T18:21:09;96389.44681876391;;;4.551254252251238
77385;BMP280;66444;49.680;18.538;2024-01-06T18:26:17;96389.07236031255;;;4.444279171712696
77385;BMP280;66444;49.680;18.538;2024-01-06T18:31:25;96396.64655284017;;;4.45956148323603
77385;BMP280;66444;49.680;18.538;2024-01-06T18:36:34;96392.02649788406;;;4.428996807802468
77385;BMP280;66444;49.680;18.538;2024-01-06T18:41:42;96404.48296642005;;;4.3373015242163095
77385;BMP280;66444;49.680;18.538;2024-01-06T18:46:51;96397.80412711813;;;4.15390529925935
77385;BMP280;66444;49.680;18.538;2024-01-06T18:52:00;96390.74067547946;;;4.072393444506451
77385;BMP280;66444;49.680;18.538;2024-01-06T18:57:12;96396.64027198731;;;4.041826114803553
77385;BMP280;66444;49.680;18.538;2024-01-06T19:02:20;96404.58390939349;;;3.9552175426855682
77385;BMP280;66444;49.680;18.538;2024-01-06T19:07:29;96398.9214416921;;;3.848228160524741
77385;BMP280;66444;49.680;18.538;2024-01-06T19:12:42;96396.29192736126;;;3.848228160524741
77385;BMP280;66444;49.680;18.538;2024-01-06T19:17:51;96405.45029039877;;;3.7870902182068678
77385;BMP280;66444;49.680;18.538;2024-01-06T19:23:00;96404.362347402;;;3.7972799334675074
77385;BMP280;66444;49.680;18.538;2024-01-06T19:28:08;96403.4098653573;;;3.843133364012465
77385;BMP280;66444;49.680;18.538;2024-01-06T19:33:17;96404.18047751416;;;3.848228160524741
77385;BMP280;66444;49.680;18.538;2024-01-06T19:38:31;96410.25511166705;;;3.766710717836395
77385;BMP280;66444;49.680;18.538;2024-01-06T19:43:40;96412.60933503397;;;3.695381733123213
77385;BMP280;66444;49.680;18.538;2024-01-06T19:48:48;96403.99188439656;;;3.6036713621113448
77385;BMP280;66444;49.680;18.538;2024-01-06T19:54:07;96407.60220123557;;;3.471197496727109
77385;BMP280;66444;49.680;18.538;2024-01-06T19:59:15;96412.5743703771;;;3.3998637855518608
77385;BMP280;66444;49.680;18.538;2024-01-06T20:04:24;96406.28927005276;;;3.2368110187817365
77385;BMP280;66444;49.680;18.538;2024-01-06T20:09:33;96416.50586497672;;;3.1654735590331256
77385;BMP280;66444;49.680;18.538;2024-01-06T20:14:42;96418.8198114007;;;3.1807602535933257
77385;BMP280;66444;49.680;18.538;2024-01-06T20:19:55;96415.88033005556;;;3.1960468957666306
77385;BMP280;66444;49.680;18.538;2024-01-06T20:25:04;96414.96324520338;;;3.1552824002224953
77385;BMP280;66444;49.680;18.538;2024-01-06T20:30:13;96413.42063437268;;;3.1450912181288
77385;BMP280;66444;49.680;18.538;2024-01-06T20:35:22;96408.95849334044;;;3.0635609231889247
77385;BMP280;66444;49.680;18.538;2024-01-06T20:40:35;96414.67008897624;;;3.08394363662228
77385;BMP280;66444;49.680;18.538;2024-01-06T20:45:44;96417.13094644144;;;3.134900012752041
77385;BMP280;66444;49.680;18.538;2024-01-06T20:50:53;96417.29632785532;;;3.08394363662228
77385;BMP280;66444;49.680;18.538;2024-01-06T20:56:01;96419.0034706213;;;3.043178116623312
77385;BMP280;66444;49.680;18.538;2024-01-06T21:01:15;96409.12301792468;;;3.0126037321519106
77385;BMP280;66444;49.680;18.538;2024-01-06T21:06:28;96417.31233467611;;;2.997316461335868
77385;BMP280;66444;49.680;18.538;2024-01-06T21:11:42;96409.74635726119;;;2.98202913813293
77385;BMP280;66444;49.680;18.538;2024-01-06T21:16:55;96425.50116628027;;;2.98202913813293
77385;BMP280;66444;49.680;18.538;2024-01-06T21:22:08;96423.03696254142;;;2.931071015773341
77385;BMP280;66444;49.680;18.538;2024-01-06T21:27:22;96426.74491248385;;;2.9208793214522304
77385;BMP280;66444;49.680;18.538;2024-01-06T21:32:35;96420.57208717095;;;2.880112311337143
77385;BMP280;66444;49.680;18.538;2024-01-06T21:37:49;96433.85744532346;;;2.829153024824336
77385;BMP280;66444;49.680;18.538;2024-01-06T21:43:02;96425.52032200615;;;2.8087691472377627
77385;BMP280;66444;49.680;18.538;2024-01-06T21:48:15;96430.61213202692;;;2.8597286665812134
77385;BMP280;66444;49.680;18.538;2024-01-06T21:53:29;96426.44971364523;;;2.7629050821531562
77385;BMP280;66444;49.680;18.538;2024-01-06T21:58:42;96424.29092923451;;;2.6966561557725073
77385;BMP280;66444;49.680;18.538;2024-01-06T22:03:55;96429.54009166572;;;2.6966561557725073
77385;BMP280;66444;49.680;18.538;2024-01-06T22:09:08;96424.29092923451;;;2.6966561557725073
77385;BMP280;66444;49.680;18.538;2024-01-06T22:14:22;96425.21576480876;;;2.7374248422682284
77385;BMP280;66444;49.680;18.538;2024-01-06T22:19:35;96432.62743010765;;;2.7170405455864968
77385;BMP280;66444;49.680;18.538;2024-01-06T22:24:49;96431.08375637769;;;2.706848362321034
77385;BMP280;66444;49.680;18.538;2024-01-06T22:30:03;96423.36552302836;;;2.655887096747756
77385;BMP280;66444;49.680;18.538;2024-01-06T22:35:17;96424.44626182411;;;2.6456947737839074
77385;BMP280;66444;49.680;18.538;2024-01-06T22:40:30;96420.89587227581;;;2.6049252490978687